Scholes International At Galveston Airport Galveston US
ICAO: KGLS
IATA: GLS
Category: Medium
Scheduled Services: No

Elevation: 6 ft
TransAlt. 18000 ft.

Airport Communications:
HOUSTON APP/DEP:134.45
ASOS:119.275
CLNC DEL:135.35
CTAF:120.575
GND:118.625
MONTGOMERY CO RDO:122.15
TWR:120.575
UNICOM:123.05

KGLS Zoom In..

Runways:

(A) RW 14 length 6000 ft width 150 ft
ILS 111.70 / hdg 138

(B) RW 18 length 6001 ft width 150 ft
---- / hdg 179

(C) RW 32 length 6000 ft width 150 ft
---- / hdg 318

(D) RW 36 length 6001 ft width 150 ft
---- / hdg 359

Location; KGLS
Day. 22 / Time. 04.19 Zulu
* Altimeter: 29.93
* Temperature: 17° c. 62.6°f.
* Wind from: 160° Speed 14 kn.
Dewpoint: 17° c.
Visibility: 1 m.
Clouds: Scattered 200 ft.
Clouds: Broken 1100 ft.
Clouds: Overcast 9000 ft.
Conditions: Mist.

KGLS 220419Z AUTO 16014KT 1 3/4SM BR SCT002 BKN011 OVC090 17/17 A2993 RMK AO2 T01720167


Wind From 160°
Speed 14 kn.

jpsM music video
CHECK IT OUT

jpsM - It Moves..

 
jpsmedia.com for Web Design  worldairports.se 2018   terms of use